Time;durP1;ratioP1;P1;durP2;ratioP2;P2;SDS_P1;SDS_P2;PMS_P1;PMS_P2;Temp;Humidity;BMP_temperature;BMP_pressure;BME280_temperature;BME280_humidity;BME280_pressure;Samples;Min_cycle;Max_cycle;Signal;HPM_P1;HPM_P2
2022/11/10 00:00:07;;;;;;;5.45;2.40;;;;;;;;;;5092740;28;20036;-62
2022/11/10 00:02:34;;;;;;;6.85;2.33;;;;;;;;;;5093283;28;20028;-62
2022/11/10 00:05:00;;;;;;;8.15;2.35;;;;;;;;;;5091642;28;20094;-62
2022/11/10 00:07:27;;;;;;;5.95;2.50;;;;;;;;;;5093076;28;20026;-61
2022/11/10 00:09:54;;;;;;;6.90;2.35;;;;;;;;;;5105585;28;20028;-60
2022/11/10 00:12:21;;;;;;;6.60;1.95;;;;;;;;;;5113318;28;20023;-60
2022/11/10 00:17:35;;;;;;;15.23;5.13;;;;;;;;;;5113438;28;20019;-62
2022/11/10 00:20:02;;;;;;;7.55;2.35;;;;;;;;;;5113288;28;20040;-61
2022/11/10 00:22:28;;;;;;;10.93;4.68;;;;;;;;;;5113100;28;20019;-61
2022/11/10 00:24:54;;;;;;;10.43;5.30;;;;;;;;;;5113246;28;20031;-61
2022/11/10 00:27:20;;;;;;;14.73;9.55;;;;;;;;;;5112608;28;20024;-62
2022/11/10 00:29:47;;;;;;;12.95;6.72;;;;;;;;;;5112958;28;20020;-61
2022/11/10 00:32:13;;;;;;;16.50;6.80;;;;;;;;;;5112835;28;20015;-62
2022/11/10 00:34:39;;;;;;;9.30;5.72;;;;;;;;;;5112639;28;20347;-62
2022/11/10 00:37:06;;;;;;;7.85;3.50;;;;;;;;;;5112608;28;20040;-62
2022/11/10 00:39:32;;;;;;;10.95;4.70;;;;;;;;;;5112690;28;20046;-62
2022/11/10 00:41:59;;;;;;;7.00;3.20;;;;;;;;;;5112464;28;20016;-62
2022/11/10 00:44:25;;;;;;;5.43;3.30;;;;;;;;;;5112488;28;20034;-61
2022/11/10 00:46:51;;;;;;;9.85;3.80;;;;;;;;;;5112708;28;20019;-61
2022/11/10 00:49:17;;;;;;;5.68;3.05;;;;;;;;;;5112526;28;20036;-61
2022/11/10 00:51:44;;;;;;;5.63;2.75;;;;;;;;;;5112427;28;20016;-61
2022/11/10 00:54:10;;;;;;;9.27;3.30;;;;;;;;;;5112289;28;20023;-62
2022/11/10 00:56:36;;;;;;;12.45;3.55;;;;;;;;;;5112187;28;20030;-61
2022/11/10 00:59:03;;;;;;;8.88;2.65;;;;;;;;;;5111399;28;20031;-61
2022/11/10 01:01:29;;;;;;;7.15;2.30;;;;;;;;;;5112689;28;20028;-61
2022/11/10 01:03:55;;;;;;;4.75;1.70;;;;;;;;;;5102521;28;20035;-61
2022/11/10 01:06:22;;;;;;;4.18;1.83;;;;;;;;;;5092140;28;20038;-62
2022/11/10 01:08:48;;;;;;;4.82;1.75;;;;;;;;;;5094831;28;20015;-61
2022/11/10 01:11:14;;;;;;;6.80;2.15;;;;;;;;;;5111882;28;20035;-61
2022/11/10 01:13:41;;;;;;;6.25;1.52;;;;;;;;;;5112267;28;20038;-60
2022/11/10 01:16:09;;;;;;;9.48;1.40;;;;;;;;;;5112267;28;20026;-61
2022/11/10 01:18:35;;;;;;;6.90;1.73;;;;;;;;;;5111964;28;20407;-62
2022/11/10 01:21:02;;;;;;;6.07;1.50;;;;;;;;;;5112150;28;20020;-62
2022/11/10 01:23:28;;;;;;;3.15;1.63;;;;;;;;;;5112005;28;20027;-61
2022/11/10 01:26:05;;;;;;;7.05;1.90;;;;;;;;;;5111980;28;20793;-62
2022/11/10 01:28:31;;;;;;;6.72;1.50;;;;;;;;;;5111698;28;20031;-62
2022/11/10 01:30:59;;;;;;;5.40;1.50;;;;;;;;;;5111877;28;20012;-61
2022/11/10 01:33:25;;;;;;;4.00;1.25;;;;;;;;;;5111836;28;20518;-61
2022/11/10 01:35:51;;;;;;;3.55;1.20;;;;;;;;;;5110195;28;20035;-59
2022/11/10 01:38:18;;;;;;;4.82;1.60;;;;;;;;;;5111598;28;20024;-60
2022/11/10 01:40:44;;;;;;;4.97;1.50;;;;;;;;;;5111452;28;20030;-61
2022/11/10 01:43:11;;;;;;;4.82;1.65;;;;;;;;;;5111631;28;20030;-62
2022/11/10 01:45:59;;;;;;;8.43;1.70;;;;;;;;;;5111521;28;20057;-60
2022/11/10 01:48:29;;;;;;;11.27;1.73;;;;;;;;;;5111484;28;20028;-62
2022/11/10 01:50:57;;;;;;;2.95;1.45;;;;;;;;;;5111431;28;20496;-62
2022/11/10 01:53:26;;;;;;;6.60;1.40;;;;;;;;;;5111713;28;20030;-62
2022/11/10 01:55:54;;;;;;;9.27;1.58;;;;;;;;;;5111226;28;20016;-61
2022/11/10 01:58:23;;;;;;;4.55;1.30;;;;;;;;;;5111587;28;20084;-62
2022/11/10 02:00:50;;;;;;;6.93;1.98;;;;;;;;;;5111489;28;20032;-61
2022/11/10 02:03:23;;;;;;;2.50;1.30;;;;;;;;;;5107432;28;20020;-61
2022/11/10 02:05:50;;;;;;;4.35;1.55;;;;;;;;;;5091156;28;20027;-62
2022/11/10 02:08:17;;;;;;;5.10;1.73;;;;;;;;;;5091091;28;20020;-61
2022/11/10 02:10:44;;;;;;;5.57;1.45;;;;;;;;;;5112702;28;20019;-61
2022/11/10 02:13:11;;;;;;;4.05;1.65;;;;;;;;;;5115769;28;20097;-61
2022/11/10 02:15:37;;;;;;;5.78;1.50;;;;;;;;;;5115432;28;20024;-62
2022/11/10 02:18:04;;;;;;;3.60;1.30;;;;;;;;;;5115494;28;20399;-61
2022/11/10 02:20:30;;;;;;;4.68;1.25;;;;;;;;;;5115758;28;20030;-61
2022/11/10 02:22:57;;;;;;;4.45;1.70;;;;;;;;;;5115675;28;20016;-62
2022/11/10 02:25:25;;;;;;;6.75;1.25;;;;;;;;;;5115061;28;20495;-61
2022/11/10 02:27:51;;;;;;;6.43;1.40;;;;;;;;;;5115511;28;20026;-61
2022/11/10 02:30:17;;;;;;;1.98;1.25;;;;;;;;;;5113950;28;20076;-61
2022/11/10 02:32:44;;;;;;;3.60;1.50;;;;;;;;;;5115288;28;20099;-62
2022/11/10 02:35:10;;;;;;;6.70;1.80;;;;;;;;;;5115056;28;20462;-61
2022/11/10 02:37:36;;;;;;;6.60;1.65;;;;;;;;;;5115012;28;20050;-61
2022/11/10 02:40:03;;;;;;;4.57;1.70;;;;;;;;;;5114724;28;20040;-61
2022/11/10 02:42:29;;;;;;;2.60;1.33;;;;;;;;;;5114981;28;20016;-62
2022/11/10 02:44:56;;;;;;;3.60;1.40;;;;;;;;;;5114861;28;20441;-61
2022/11/10 02:47:22;;;;;;;2.65;1.58;;;;;;;;;;5114964;28;20026;-61
2022/11/10 02:49:49;;;;;;;5.57;1.63;;;;;;;;;;5114946;28;20032;-61
2022/11/10 02:52:15;;;;;;;6.35;1.70;;;;;;;;;;5114713;28;20028;-64
2022/11/10 02:54:41;;;;;;;3.80;1.65;;;;;;;;;;5114790;28;20012;-61
2022/11/10 02:57:07;;;;;;;6.07;1.92;;;;;;;;;;5114793;28;20030;-62
2022/11/10 02:59:34;;;;;;;5.65;1.90;;;;;;;;;;5114830;28;20035;-61
2022/11/10 03:02:00;;;;;;;4.35;2.10;;;;;;;;;;5114676;28;20073;-62
2022/11/10 03:04:26;;;;;;;5.97;2.75;;;;;;;;;;5100859;28;20020;-62
2022/11/10 03:06:53;;;;;;;2.55;2.00;;;;;;;;;;5093897;28;20030;-61
2022/11/10 03:09:19;;;;;;;4.32;2.42;;;;;;;;;;5101440;28;20024;-61
2022/11/10 03:11:45;;;;;;;4.20;2.20;;;;;;;;;;5114439;28;20046;-62
2022/11/10 03:14:11;;;;;;;7.30;1.98;;;;;;;;;;5114319;28;20076;-61
2022/11/10 03:16:38;;;;;;;6.43;2.17;;;;;;;;;;5114395;28;20016;-61
2022/11/10 03:19:04;;;;;;;6.28;2.08;;;;;;;;;;5114193;28;20438;-61
2022/11/10 03:21:30;;;;;;;4.47;2.45;;;;;;;;;;5113153;28;20020;-62
2022/11/10 03:23:57;;;;;;;7.55;2.55;;;;;;;;;;5114181;28;20036;-61
2022/11/10 03:26:23;;;;;;;4.03;2.17;;;;;;;;;;5114205;28;20522;-61
2022/11/10 03:28:49;;;;;;;6.57;2.30;;;;;;;;;;5114092;28;20012;-62
2022/11/10 03:31:16;;;;;;;4.40;1.90;;;;;;;;;;5114226;28;20038;-61
2022/11/10 03:33:42;;;;;;;5.80;1.90;;;;;;;;;;5113903;28;20023;-62
2022/11/10 03:36:08;;;;;;;4.47;2.08;;;;;;;;;;5113594;28;20061;-61
2022/11/10 03:38:35;;;;;;;4.95;2.10;;;;;;;;;;5114113;28;20040;-61
2022/11/10 03:41:01;;;;;;;4.70;2.03;;;;;;;;;;5114108;28;20058;-61
2022/11/10 03:43:27;;;;;;;6.65;2.28;;;;;;;;;;5114141;28;20016;-61
2022/11/10 03:45:54;;;;;;;5.80;2.00;;;;;;;;;;5113727;28;20031;-62
2022/11/10 03:48:20;;;;;;;6.85;2.15;;;;;;;;;;5114038;28;20027;-62
2022/11/10 03:50:46;;;;;;;7.88;1.55;;;;;;;;;;5113610;28;20037;-61
2022/11/10 03:53:12;;;;;;;4.97;1.98;;;;;;;;;;5112282;28;20148;-61
2022/11/10 03:55:39;;;;;;;5.47;1.73;;;;;;;;;;5113837;28;20056;-62
2022/11/10 03:58:05;;;;;;;4.30;1.73;;;;;;;;;;5113684;28;20023;-62
2022/11/10 04:00:31;;;;;;;5.88;1.80;;;;;;;;;;5113314;28;20032;-62
2022/11/10 04:02:58;;;;;;;5.18;1.98;;;;;;;;;;5110543;28;20086;-62
2022/11/10 04:10:58;;;;;;;4.68;1.75;;;;;;;;;;5093047;28;20392;-61
2022/11/10 04:16:10;;;;;;;6.45;1.88;;;;;;;;;;5092790;28;20028;-62
2022/11/10 04:18:36;;;;;;;6.20;2.30;;;;;;;;;;5091491;28;20529;-61
2022/11/10 04:21:03;;;;;;;3.80;2.00;;;;;;;;;;5092466;28;20020;-61
2022/11/10 04:23:35;;;;;;;8.82;2.20;;;;;;;;;;5092820;28;20024;-61
2022/11/10 04:28:49;;;;;;;6.15;2.58;;;;;;;;;;5092916;28;20031;-61
2022/11/10 04:31:16;;;;;;;5.18;2.47;;;;;;;;;;5092693;28;20518;-61
2022/11/10 04:33:43;;;;;;;8.38;1.92;;;;;;;;;;5092529;28;20028;-61
2022/11/10 04:36:10;;;;;;;13.73;3.67;;;;;;;;;;5091806;28;20040;-61
2022/11/10 04:38:37;;;;;;;6.45;2.55;;;;;;;;;;5092429;28;20039;-61
2022/11/10 04:41:03;;;;;;;9.88;1.85;;;;;;;;;;5092390;28;20028;-61
2022/11/10 04:43:29;;;;;;;5.88;2.60;;;;;;;;;;5092383;28;20477;-62
2022/11/10 04:45:56;;;;;;;9.32;2.90;;;;;;;;;;5108537;28;20024;-62
2022/11/10 04:48:23;;;;;;;9.13;3.13;;;;;;;;;;5112182;28;20024;-61
2022/11/10 04:50:49;;;;;;;6.40;2.67;;;;;;;;;;5112887;28;20028;-61
2022/11/10 04:53:15;;;;;;;4.57;2.10;;;;;;;;;;5112431;28;20041;-61
2022/11/10 04:55:43;;;;;;;4.15;2.05;;;;;;;;;;5112226;28;20506;-62
2022/11/10 04:58:09;;;;;;;6.32;2.15;;;;;;;;;;5112501;28;20012;-61
2022/11/10 05:00:36;;;;;;;6.35;1.90;;;;;;;;;;5112324;28;20039;-61
2022/11/10 05:03:03;;;;;;;4.72;2.45;;;;;;;;;;5109822;28;20014;-61
2022/11/10 05:05:29;;;;;;;8.32;2.00;;;;;;;;;;5091941;28;20081;-61
2022/11/10 05:07:56;;;;;;;8.55;1.90;;;;;;;;;;5091918;28;20028;-61
2022/11/10 05:10:23;;;;;;;5.93;1.77;;;;;;;;;;5107955;28;20016;-61
2022/11/10 05:12:52;;;;;;;5.40;2.10;;;;;;;;;;5112531;28;20027;-61
2022/11/10 05:15:18;;;;;;;7.10;1.95;;;;;;;;;;5112046;28;20020;-61
2022/11/10 05:17:47;;;;;;;8.00;3.83;;;;;;;;;;5111634;28;20469;-61
2022/11/10 05:20:14;;;;;;;4.82;2.70;;;;;;;;;;5111940;28;20043;-61
2022/11/10 05:22:43;;;;;;;7.75;2.72;;;;;;;;;;5111959;28;20035;-61
2022/11/10 05:25:09;;;;;;;4.97;2.33;;;;;;;;;;5112302;28;20088;-61
2022/11/10 05:27:37;;;;;;;12.82;2.70;;;;;;;;;;5112223;28;20027;-61
2022/11/10 05:30:04;;;;;;;8.75;2.10;;;;;;;;;;5111925;28;20392;-61
2022/11/10 05:32:30;;;;;;;4.78;2.10;;;;;;;;;;5111578;28;20018;-62
2022/11/10 05:34:56;;;;;;;4.65;2.30;;;;;;;;;;5111637;28;20020;-61
2022/11/10 05:37:23;;;;;;;5.65;2.15;;;;;;;;;;5111693;28;20050;-61
2022/11/10 05:39:49;;;;;;;7.50;2.40;;;;;;;;;;5111720;28;20040;-61
2022/11/10 05:42:16;;;;;;;4.85;2.40;;;;;;;;;;5111765;28;20028;-61
2022/11/10 05:44:42;;;;;;;5.85;2.28;;;;;;;;;;5111331;28;20024;-61
2022/11/10 05:47:08;;;;;;;7.07;2.30;;;;;;;;;;5111356;28;20038;-61
2022/11/10 05:49:34;;;;;;;6.57;2.00;;;;;;;;;;5111803;28;20024;-61
2022/11/10 05:52:01;;;;;;;7.05;1.95;;;;;;;;;;5111592;28;20081;-61
2022/11/10 05:54:27;;;;;;;5.22;2.42;;;;;;;;;;5111531;28;20028;-61
2022/11/10 05:56:53;;;;;;;8.45;3.00;;;;;;;;;;5111566;28;20024;-61
2022/11/10 05:59:20;;;;;;;7.85;3.45;;;;;;;;;;5111639;28;20399;-61
2022/11/10 06:01:46;;;;;;;8.05;3.30;;;;;;;;;;5111402;28;20026;-61
2022/11/10 06:04:12;;;;;;;8.13;3.30;;;;;;;;;;5098253;28;20035;-61
2022/11/10 06:06:39;;;;;;;14.80;6.93;;;;;;;;;;5091237;28;20511;-61
2022/11/10 06:09:05;;;;;;;9.65;4.57;;;;;;;;;;5096619;28;20028;-61
2022/11/10 06:11:31;;;;;;;7.95;3.60;;;;;;;;;;5111525;28;20032;-61
2022/11/10 06:13:59;;;;;;;6.80;2.80;;;;;;;;;;5111493;28;20032;-64
2022/11/10 06:16:26;;;;;;;12.73;3.15;;;;;;;;;;5111155;28;20024;-64
2022/11/10 06:18:52;;;;;;;9.32;4.10;;;;;;;;;;5111244;28;20495;-63
2022/11/10 06:21:18;;;;;;;9.50;4.32;;;;;;;;;;5111720;28;20019;-64
2022/11/10 06:23:44;;;;;;;8.70;3.80;;;;;;;;;;5111364;28;20024;-63
2022/11/10 06:26:11;;;;;;;7.57;4.55;;;;;;;;;;5111543;28;20023;-63
2022/11/10 06:28:37;;;;;;;8.32;4.45;;;;;;;;;;5111624;28;20027;-64
2022/11/10 06:31:03;;;;;;;5.65;3.25;;;;;;;;;;5109786;28;20019;-64
2022/11/10 06:33:30;;;;;;;5.78;3.30;;;;;;;;;;5111339;28;20376;-63
2022/11/10 06:35:56;;;;;;;7.03;3.33;;;;;;;;;;5111014;28;20765;-63
2022/11/10 06:38:22;;;;;;;14.45;4.28;;;;;;;;;;5111046;28;20023;-63
2022/11/10 06:40:49;;;;;;;7.53;4.38;;;;;;;;;;5111362;28;20023;-64
2022/11/10 06:43:15;;;;;;;6.95;3.25;;;;;;;;;;5111257;28;20019;-64
2022/11/10 06:45:41;;;;;;;9.88;4.53;;;;;;;;;;5110931;28;20030;-64
2022/11/10 06:48:10;;;;;;;24.98;12.98;;;;;;;;;;5111420;28;20024;-64
2022/11/10 06:50:37;;;;;;;23.98;12.45;;;;;;;;;;5111159;28;20578;-63
2022/11/10 06:53:03;;;;;;;27.90;12.98;;;;;;;;;;5111038;28;20041;-64
2022/11/10 06:55:29;;;;;;;15.75;7.80;;;;;;;;;;5111283;28;20041;-64
2022/11/10 06:57:56;;;;;;;15.27;5.55;;;;;;;;;;5113652;28;20026;-64
2022/11/10 07:00:23;;;;;;;10.48;4.80;;;;;;;;;;5114316;28;20407;-64
2022/11/10 07:02:57;;;;;;;10.73;4.82;;;;;;;;;;5114683;28;20020;-64
2022/11/10 07:05:24;;;;;;;15.48;5.50;;;;;;;;;;5094241;28;20028;-64
2022/11/10 07:07:50;;;;;;;11.80;4.78;;;;;;;;;;5094259;28;20031;-64
2022/11/10 07:10:17;;;;;;;12.35;4.53;;;;;;;;;;5096033;28;20042;-64
2022/11/10 07:12:43;;;;;;;16.00;7.05;;;;;;;;;;5102359;28;20032;-64
2022/11/10 07:15:09;;;;;;;40.00;20.02;;;;;;;;;;5100316;28;20019;-63
2022/11/10 07:17:41;;;;;;;30.60;16.35;;;;;;;;;;5102289;28;20024;-64
2022/11/10 07:20:09;;;;;;;17.83;8.00;;;;;;;;;;5100952;28;20038;-63
2022/11/10 07:22:35;;;;;;;10.57;5.40;;;;;;;;;;5102051;28;20031;-63
2022/11/10 07:25:01;;;;;;;38.88;22.17;;;;;;;;;;5102753;28;20472;-64
2022/11/10 07:27:27;;;;;;;46.50;24.70;;;;;;;;;;5103396;28;20030;-63
2022/11/10 07:29:54;;;;;;;28.25;17.23;;;;;;;;;;5113378;28;20024;-64
2022/11/10 07:32:20;;;;;;;17.45;10.20;;;;;;;;;;5102153;28;20027;-64
2022/11/10 07:34:46;;;;;;;13.63;6.30;;;;;;;;;;5101849;28;20032;-64
2022/11/10 07:37:13;;;;;;;22.67;12.15;;;;;;;;;;5099572;28;20054;-63
2022/11/10 07:39:39;;;;;;;17.52;8.48;;;;;;;;;;5108627;28;20038;-63
2022/11/10 07:42:05;;;;;;;19.20;9.30;;;;;;;;;;5111928;28;20015;-63
2022/11/10 07:44:31;;;;;;;10.10;6.13;;;;;;;;;;5108819;28;20091;-64
2022/11/10 07:46:58;;;;;;;15.20;7.93;;;;;;;;;;5100097;28;20081;-65
2022/11/10 07:49:24;;;;;;;12.65;6.65;;;;;;;;;;5109844;28;20029;-61
2022/11/10 07:51:51;;;;;;;8.13;5.75;;;;;;;;;;5113221;28;20024;-60
2022/11/10 07:54:17;;;;;;;8.27;4.50;;;;;;;;;;5098703;28;20408;-62
2022/11/10 07:56:44;;;;;;;6.50;4.22;;;;;;;;;;5101542;28;20019;-62
2022/11/10 07:59:10;;;;;;;8.65;5.70;;;;;;;;;;5113116;28;20039;-62
2022/11/10 08:01:36;;;;;;;7.32;4.57;;;;;;;;;;5113205;28;20016;-62
2022/11/10 08:04:03;;;;;;;8.45;4.47;;;;;;;;;;5113057;28;20072;-62
2022/11/10 08:06:30;;;;;;;10.82;3.92;;;;;;;;;;5114850;27;20034;-63
2022/11/10 08:08:56;;;;;;;5.63;3.30;;;;;;;;;;5128709;27;20034;-62
2022/11/10 08:11:22;;;;;;;5.80;3.97;;;;;;;;;;5107598;28;20032;-62
2022/11/10 08:13:49;;;;;;;8.50;3.42;;;;;;;;;;5112330;28;20024;-61
2022/11/10 08:16:15;;;;;;;7.38;3.78;;;;;;;;;;5112714;28;20389;-62
2022/11/10 08:18:41;;;;;;;6.63;3.30;;;;;;;;;;5112651;28;20023;-62
2022/11/10 08:21:08;;;;;;;16.25;3.60;;;;;;;;;;5112896;28;20124;-62
2022/11/10 08:23:34;;;;;;;5.45;3.20;;;;;;;;;;5112727;28;20019;-61
2022/11/10 08:26:01;;;;;;;8.05;3.30;;;;;;;;;;5112589;28;20403;-62
2022/11/10 08:28:28;;;;;;;8.50;2.90;;;;;;;;;;5096802;28;20028;-62
2022/11/10 08:30:54;;;;;;;10.25;3.70;;;;;;;;;;5092059;28;20021;-62
2022/11/10 08:33:21;;;;;;;5.95;3.55;;;;;;;;;;5098958;28;20483;-62
2022/11/10 08:35:48;;;;;;;12.93;4.60;;;;;;;;;;5104335;28;20038;-62
2022/11/10 08:38:16;;;;;;;11.00;5.00;;;;;;;;;;5111930;27;20027;-63
2022/11/10 08:40:43;;;;;;;7.95;4.35;;;;;;;;;;5102083;28;20031;-62
2022/11/10 08:43:10;;;;;;;6.72;4.28;;;;;;;;;;5111037;28;20481;-62
2022/11/10 08:45:37;;;;;;;9.65;4.53;;;;;;;;;;5103584;28;20027;-62
2022/11/10 08:48:08;;;;;;;7.28;4.93;;;;;;;;;;5092181;28;20016;-62
2022/11/10 08:50:34;;;;;;;7.68;4.05;;;;;;;;;;5100912;28;20027;-62
2022/11/10 08:53:01;;;;;;;7.20;4.13;;;;;;;;;;5110762;28;20044;-63
2022/11/10 08:55:28;;;;;;;7.47;3.72;;;;;;;;;;5111150;28;20022;-63
2022/11/10 08:57:58;;;;;;;5.20;3.35;;;;;;;;;;5112105;28;20534;-62
2022/11/10 09:00:25;;;;;;;5.55;3.28;;;;;;;;;;5111646;28;20040;-62
2022/11/10 09:02:51;;;;;;;6.82;2.92;;;;;;;;;;5092970;28;20374;-63
2022/11/10 09:05:17;;;;;;;5.88;2.90;;;;;;;;;;5091703;28;20392;-62
2022/11/10 09:07:47;;;;;;;6.32;3.00;;;;;;;;;;5094213;28;20035;-62
2022/11/10 09:10:14;;;;;;;5.47;3.03;;;;;;;;;;5111340;28;20507;-62
2022/11/10 09:12:41;;;;;;;6.00;3.28;;;;;;;;;;5110780;28;20030;-63
2022/11/10 09:15:08;;;;;;;11.90;3.70;;;;;;;;;;5111009;28;20741;-62
2022/11/10 09:17:34;;;;;;;5.70;2.95;;;;;;;;;;5110975;28;20008;-62
2022/11/10 09:20:00;;;;;;;8.68;2.97;;;;;;;;;;5110364;28;20046;-63
2022/11/10 09:22:27;;;;;;;5.88;3.08;;;;;;;;;;5110966;28;20023;-62
2022/11/10 09:24:53;;;;;;;7.25;3.10;;;;;;;;;;5111598;28;20084;-62
2022/11/10 09:27:19;;;;;;;5.05;2.72;;;;;;;;;;5109319;28;20016;-62
2022/11/10 09:29:46;;;;;;;10.52;2.63;;;;;;;;;;5104775;28;20023;-63
2022/11/10 09:32:12;;;;;;;4.65;2.42;;;;;;;;;;5111303;28;20020;-62
2022/11/10 09:34:38;;;;;;;4.40;2.10;;;;;;;;;;5097257;28;20016;-61
2022/11/10 09:37:04;;;;;;;9.13;2.22;;;;;;;;;;5108998;28;20043;-62
2022/11/10 09:39:32;;;;;;;6.82;2.50;;;;;;;;;;5105171;28;20599;-62
2022/11/10 09:41:58;;;;;;;5.35;1.50;;;;;;;;;;5091265;28;20019;-61
2022/11/10 09:44:27;;;;;;;3.90;1.52;;;;;;;;;;5091033;28;20593;-62
2022/11/10 09:46:56;;;;;;;3.50;2.03;;;;;;;;;;5090997;28;20016;-62
2022/11/10 09:49:29;;;;;;;2.72;1.45;;;;;;;;;;5091180;28;20031;-62
2022/11/10 09:51:57;;;;;;;3.60;1.92;;;;;;;;;;5091482;28;20035;-62
2022/11/10 09:54:36;;;;;;;3.17;1.73;;;;;;;;;;5090287;28;20024;-62
2022/11/10 09:57:04;;;;;;;5.30;1.88;;;;;;;;;;5091025;28;20031;-62
2022/11/10 09:59:31;;;;;;;4.60;1.90;;;;;;;;;;5090816;28;20036;-62
2022/11/10 10:02:08;;;;;;;4.13;1.27;;;;;;;;;;5091254;28;20072;-62
2022/11/10 10:04:51;;;;;;;2.95;1.88;;;;;;;;;;5090819;28;20030;-62
2022/11/10 10:07:23;;;;;;;3.60;1.80;;;;;;;;;;5090443;28;20032;-63
2022/11/10 10:10:00;;;;;;;3.97;1.10;;;;;;;;;;5092126;28;20115;-62
2022/11/10 10:12:26;;;;;;;2.85;1.50;;;;;;;;;;5090958;28;20016;-63
2022/11/10 10:15:11;;;;;;;4.32;1.33;;;;;;;;;;5090685;28;20085;-62
2022/11/10 10:17:44;;;;;;;5.80;1.50;;;;;;;;;;5089710;28;20028;-62
2022/11/10 10:20:31;;;;;;;4.40;1.42;;;;;;;;;;5090562;28;20442;-62
2022/11/10 10:23:21;;;;;;;5.65;1.70;;;;;;;;;;5098186;28;20451;-62
2022/11/10 10:25:47;;;;;;;4.38;1.30;;;;;;;;;;5083282;28;20050;-63
2022/11/10 10:28:40;;;;;;;4.65;1.63;;;;;;;;;;5105518;28;20032;-63
2022/11/10 10:31:27;;;;;;;4.57;1.65;;;;;;;;;;5089016;28;20428;-63
2022/11/10 10:33:53;;;;;;;5.88;1.83;;;;;;;;;;5099061;28;20038;-62
2022/11/10 10:36:24;;;;;;;3.70;1.58;;;;;;;;;;5106483;28;20062;-62
2022/11/10 10:38:52;;;;;;;6.95;1.73;;;;;;;;;;5094239;28;20030;-62
2022/11/10 10:41:24;;;;;;;3.45;1.80;;;;;;;;;;5103100;28;20020;-63
2022/11/10 10:43:52;;;;;;;2.38;1.10;;;;;;;;;;5104934;28;20056;-63
2022/11/10 10:46:23;;;;;;;2.72;1.40;;;;;;;;;;5114315;28;20466;-63
2022/11/10 10:48:49;;;;;;;;;;;;;;;;;;5115123;27;20024;-63
2022/11/10 10:51:28;;;;;;;4.38;1.75;;;;;;;;;;5111210;28;19908;-63
2022/11/10 10:53:55;;;;;;;3.63;1.45;;;;;;;;;;5091818;28;20036;-63
2022/11/10 10:56:32;;;;;;;3.60;1.40;;;;;;;;;;5095117;28;20068;-63
2022/11/10 10:59:03;;;;;;;3.47;1.40;;;;;;;;;;5103563;28;20514;-62
2022/11/10 11:01:30;;;;;;;2.53;1.25;;;;;;;;;;5094690;28;20039;-63
2022/11/10 11:03:57;;;;;;;2.83;0.90;;;;;;;;;;5104324;28;20023;-62
2022/11/10 11:06:28;;;;;;;3.22;1.27;;;;;;;;;;5110494;28;20034;-62
2022/11/10 11:09:00;;;;;;;5.00;1.60;;;;;;;;;;5112287;28;20026;-62
2022/11/10 11:11:28;;;;;;;1.63;1.10;;;;;;;;;;5113409;28;20034;-63
2022/11/10 11:14:12;;;;;;;3.58;1.60;;;;;;;;;;5114125;28;20024;-63
2022/11/10 11:16:57;;;;;;;4.57;1.50;;;;;;;;;;5113085;28;20384;-63
2022/11/10 11:19:25;;;;;;;3.13;1.38;;;;;;;;;;5113978;28;20046;-63
2022/11/10 11:22:10;;;;;;;4.28;1.45;;;;;;;;;;5113648;28;20507;-63
2022/11/10 11:24:36;;;;;;;2.33;1.33;;;;;;;;;;5114108;28;20024;-63
2022/11/10 11:27:15;;;;;;;3.22;1.50;;;;;;;;;;5112590;28;20024;-63
2022/11/10 11:29:58;;;;;;;2.55;1.10;;;;;;;;;;5114046;28;20033;-63
2022/11/10 11:32:32;;;;;;;5.50;1.00;;;;;;;;;;5113683;28;20404;-63
2022/11/10 11:35:16;;;;;;;1.30;1.10;;;;;;;;;;5112624;28;20031;-63
2022/11/10 11:37:42;;;;;;;1.73;1.05;;;;;;;;;;5112814;28;20411;-63
2022/11/10 11:40:18;;;;;;;2.95;1.10;;;;;;;;;;5113303;28;20080;-63
2022/11/10 11:42:52;;;;;;;1.92;1.00;;;;;;;;;;5110532;28;20491;-63
2022/11/10 11:45:24;;;;;;;2.65;1.10;;;;;;;;;;5111002;28;20032;-63
2022/11/10 11:48:23;;;;;;;9.75;4.25;;;;;;;;;;5112196;28;20027;-64
2022/11/10 11:50:54;;;;;;;4.57;2.60;;;;;;;;;;5049773;28;20047;-63
2022/11/10 11:53:27;;;;;;;2.85;1.50;;;;;;;;;;5048036;28;20029;-63
2022/11/10 11:56:11;;;;;;;3.55;0.98;;;;;;;;;;5050271;28;20035;-63
2022/11/10 11:58:45;;;;;;;2.30;0.70;;;;;;;;;;5050044;28;20555;-63
2022/11/10 12:01:20;;;;;;;1.75;0.85;;;;;;;;;;5050941;28;20405;-63
2022/11/10 12:03:52;;;;;;;5.88;1.10;;;;;;;;;;5050890;28;20027;-63
2022/11/10 12:06:32;;;;;;;2.33;1.00;;;;;;;;;;5051204;28;20041;-63
2022/11/10 12:09:01;;;;;;;1.20;0.82;;;;;;;;;;5051197;28;20150;-63
2022/11/10 12:11:27;;;;;;;1.55;0.93;;;;;;;;;;5051386;28;20033;-63
2022/11/10 12:14:06;;;;;;;1.85;0.80;;;;;;;;;;5051292;28;20481;-63
2022/11/10 12:16:33;;;;;;;1.60;1.00;;;;;;;;;;5051391;28;20033;-63
2022/11/10 12:19:02;;;;;;;1.63;0.90;;;;;;;;;;5030703;28;20525;-63
2022/11/10 12:21:28;;;;;;;2.28;1.10;;;;;;;;;;5031318;28;20024;-64
2022/11/10 12:24:01;;;;;;;2.30;1.20;;;;;;;;;;5031098;28;20035;-63
2022/11/10 12:26:35;;;;;;;3.13;0.88;;;;;;;;;;5064970;28;20028;-63
2022/11/10 12:29:19;;;;;;;1.08;0.80;;;;;;;;;;5093863;28;20084;-63
2022/11/10 12:31:46;;;;;;;2.83;0.90;;;;;;;;;;5093315;28;20454;-63
2022/11/10 12:34:33;;;;;;;4.05;0.80;;;;;;;;;;5093042;28;20042;-63
2022/11/10 12:37:01;;;;;;;1.02;0.85;;;;;;;;;;5094598;28;20058;-65
2022/11/10 12:39:41;;;;;;;1.92;0.80;;;;;;;;;;5095076;28;20028;-63
2022/11/10 12:42:07;;;;;;;;;;;;;;;;;;5101417;28;20018;-63
2022/11/10 12:44:39;;;;;;;0.80;0.80;;;;;;;;;;5097131;27;19907;-63
2022/11/10 12:47:09;;;;;;;2.58;0.80;;;;;;;;;;5096703;28;20499;-63
2022/11/10 12:49:37;;;;;;;3.00;0.80;;;;;;;;;;5093372;28;20048;-63
2022/11/10 12:52:11;;;;;;;1.20;0.77;;;;;;;;;;5102085;28;20038;-63
2022/11/10 12:54:38;;;;;;;1.55;0.80;;;;;;;;;;5097031;28;20019;-63
2022/11/10 12:57:11;;;;;;;2.13;1.10;;;;;;;;;;5077739;28;20038;-63
2022/11/10 12:59:40;;;;;;;3.15;1.00;;;;;;;;;;5108719;28;20034;-63
2022/11/10 13:02:20;;;;;;;2.28;0.98;;;;;;;;;;5109137;28;20026;-63
2022/11/10 13:05:07;;;;;;;1.95;0.80;;;;;;;;;;5102938;28;20477;-63
2022/11/10 13:07:33;;;;;;;1.30;0.80;;;;;;;;;;5110854;28;20387;-63
2022/11/10 13:10:15;;;;;;;0.98;0.80;;;;;;;;;;5090387;28;20040;-63
2022/11/10 13:12:57;;;;;;;1.75;1.00;;;;;;;;;;5091480;28;20456;-63
2022/11/10 13:15:36;;;;;;;0.80;0.60;;;;;;;;;;5094312;28;20396;-63
2022/11/10 13:18:03;;;;;;;2.05;0.80;;;;;;;;;;5111368;28;20039;-64
2022/11/10 13:20:38;;;;;;;1.38;0.90;;;;;;;;;;5104249;28;20016;-64
2022/11/10 13:23:23;;;;;;;1.20;0.70;;;;;;;;;;5091202;28;20395;-63
2022/11/10 13:25:51;;;;;;;1.45;0.90;;;;;;;;;;5091198;28;20027;-64
2022/11/10 13:28:38;;;;;;;4.32;1.60;;;;;;;;;;5090715;28;20374;-62
2022/11/10 13:31:24;;;;;;;3.67;1.60;;;;;;;;;;5095040;28;20100;-63
2022/11/10 13:34:19;;;;;;;0.82;0.70;;;;;;;;;;5096053;28;20027;-62
2022/11/10 13:36:47;;;;;;;0.85;0.77;;;;;;;;;;5077789;28;20047;-63
2022/11/10 13:39:19;;;;;;;1.25;0.82;;;;;;;;;;5091023;28;20028;-62
2022/11/10 13:41:49;;;;;;;1.50;0.80;;;;;;;;;;5089092;28;20027;-63
2022/11/10 13:44:29;;;;;;;1.55;0.85;;;;;;;;;;5094202;28;20028;-63
2022/11/10 13:46:59;;;;;;;1.92;1.00;;;;;;;;;;5090663;28;20762;-63
2022/11/10 13:49:44;;;;;;;1.45;0.80;;;;;;;;;;5097738;28;20040;-63
2022/11/10 13:52:29;;;;;;;3.45;0.98;;;;;;;;;;5108920;28;20028;-63
2022/11/10 13:54:55;;;;;;;1.40;0.93;;;;;;;;;;5101954;28;20506;-62
2022/11/10 13:57:24;;;;;;;1.40;0.90;;;;;;;;;;5111259;28;20028;-63
2022/11/10 13:59:54;;;;;;;2.60;0.90;;;;;;;;;;5090771;28;20042;-62
2022/11/10 14:02:29;;;;;;;3.17;1.05;;;;;;;;;;5109119;28;20024;-63
2022/11/10 14:04:56;;;;;;;3.17;0.88;;;;;;;;;;5111039;28;20035;-63
2022/11/10 14:07:22;;;;;;;1.95;0.80;;;;;;;;;;5108128;28;20020;-63
2022/11/10 14:09:52;;;;;;;2.00;0.80;;;;;;;;;;5095890;28;20043;-63
2022/11/10 14:12:27;;;;;;;0.95;0.82;;;;;;;;;;5115310;28;20037;-63
2022/11/10 14:14:57;;;;;;;1.60;0.80;;;;;;;;;;5114860;28;20469;-63
2022/11/10 14:17:27;;;;;;;3.47;0.93;;;;;;;;;;5115296;28;20058;-62
2022/11/10 14:19:53;;;;;;;2.80;1.17;;;;;;;;;;5108799;28;20036;-62
2022/11/10 14:22:24;;;;;;;1.25;1.02;;;;;;;;;;5106434;28;20484;-63
2022/11/10 14:24:57;;;;;;;1.60;1.05;;;;;;;;;;5104384;28;20127;-62
2022/11/10 14:27:26;;;;;;;2.08;0.70;;;;;;;;;;5094543;28;20109;-63
2022/11/10 14:30:11;;;;;;;1.63;0.77;;;;;;;;;;5094265;28;20416;-63
2022/11/10 14:32:37;;;;;;;1.58;0.85;;;;;;;;;;5093353;28;20040;-62
2022/11/10 14:35:04;;;;;;;1.40;0.98;;;;;;;;;;5100554;28;20030;-62
2022/11/10 14:37:30;;;;;;;2.08;0.90;;;;;;;;;;5094226;28;20046;-63
2022/11/10 14:40:01;;;;;;;1.13;0.70;;;;;;;;;;5094603;28;20035;-62
2022/11/10 14:42:29;;;;;;;2.47;0.80;;;;;;;;;;5107664;28;20373;-62
2022/11/10 14:45:14;;;;;;;2.22;0.90;;;;;;;;;;5108132;28;20020;-62
2022/11/10 14:47:41;;;;;;;3.30;1.00;;;;;;;;;;5105392;28;20031;-61
2022/11/10 14:50:07;;;;;;;2.20;1.05;;;;;;;;;;5101087;28;20036;-62
2022/11/10 14:52:37;;;;;;;3.28;1.10;;;;;;;;;;5106608;28;20020;-62
2022/11/10 14:55:08;;;;;;;1.40;1.07;;;;;;;;;;5114657;28;20032;-62
2022/11/10 14:57:35;;;;;;;1.02;0.93;;;;;;;;;;5094270;28;20038;-62
2022/11/10 15:00:05;;;;;;;1.73;0.77;;;;;;;;;;5107893;28;20023;-61
2022/11/10 15:02:31;;;;;;;1.35;0.80;;;;;;;;;;5114005;28;20433;-63
2022/11/10 15:04:58;;;;;;;2.05;1.00;;;;;;;;;;5114186;28;20018;-62